Rocky Face, Georgia
Current Conditions -  °F | °C
As of 12:35 AM on Thursday 18 Dec 2014 (Local Time) from KDNN Reporting Station
Clear Clear  
Wind Chill: 29°   Ceiling: Unl
Heat Index: 36°   Visibility: 10mi
Dew Point: 32°   Wind: 9mph
Humidity: 87%   Direction: 330°NNW
Pressure: 30.19"   Gusts: NA
Location:  34.8°N, 85.03°W
Report Text: KDNN 180535Z AUTO 33008KT 10SM CLR 02/00 A3019 RMK AO2
Loading
Personal Weather Stations






























Interactive Weather Map New forecast layout! Learn more

10-Day Weather Forecast

Advertisements
Track Severe Weather on mobile